アテネ の空港の天気 - METARとTAF

アテネ国際空港 ( LGAV / ATH ) - ギリシャ アテネ
飛行場実況気象(Metar)
観測時間06/18 02:50 EEST (06/17 23:50 UTC)
風向・風速西 2m/s
視程10km以上
天気現象
少しの雲 雲底高度 910m
気温25℃
湿度41%
気圧1012hPa
METARLGAV 172350Z 27004KT 240V300 9999 FEW030 25/11 Q1012 NOSIG
過去の天気等 Google飛行場航空写真 Wunderground天気予報

過去48時間のMETAR

飛行場予報(TAF)
発表時間: 6/18 02:00 EEST (6/17 23:00 UTC)
予報対象時間: 18日3時 EEST ~ 19日3時 EEST
風向・風速北 6m/s
視程10km以上
少しの雲 雲底高度 760m
18日9時 EEST ~ 18日11時 EEST に徐々に
少しの雲 雲底高度 610m
全天の4割程度の雲 雲底高度 2130m
18日11時 EEST ~ 18日19時 EEST に 確率 30% で一時的に
視程5000m
天気現象雷雨
少しの積乱雲 雲底高度 550m
全天の4割程度の雲 雲底高度 610m
全天の8割程度の雲 雲底高度 2130m
18日13時 EEST ~ 18日15時 EEST に徐々に
風向・風速北東 6m/s
18日18時 EEST ~ 18日20時 EEST に徐々に
少しの雲 雲底高度 760m
TAF LGAV 172300Z 1800/1824 35012KT 9999 FEW025
BECMG 1806/1808 FEW020 SCT070
PROB30 TEMPO 1808/1816 5000 TSRA FEW018CB SCT020 BKN070
BECMG 1810/1812 05012KT
BECMG 1815/1817 FEW025